sensor_id;sensor_type;location;lat;lon;timestamp;pressure;altitude;pressure_sealevel;temperature;humidity
11223;BME280;5668;52.012;8.724;2023-05-10T00:02:10;99319.16;;;19.22;79.27
11223;BME280;5668;52.012;8.724;2023-05-10T00:04:37;99317.50;;;19.21;79.51
11223;BME280;5668;52.012;8.724;2023-05-10T00:07:04;99311.44;;;19.20;79.79
11223;BME280;5668;52.012;8.724;2023-05-10T00:09:32;99303.53;;;19.20;79.73
11223;BME280;5668;52.012;8.724;2023-05-10T00:12:00;99305.34;;;19.20;79.53
11223;BME280;5668;52.012;8.724;2023-05-10T00:14:27;99307.34;;;19.18;79.63
11223;BME280;5668;52.012;8.724;2023-05-10T00:16:54;99297.81;;;19.17;79.34
11223;BME280;5668;52.012;8.724;2023-05-10T00:19:21;99297.19;;;19.15;79.73
11223;BME280;5668;52.012;8.724;2023-05-10T00:21:48;99305.44;;;19.12;79.80
11223;BME280;5668;52.012;8.724;2023-05-10T00:24:16;99302.19;;;19.10;80.17
11223;BME280;5668;52.012;8.724;2023-05-10T00:26:44;99297.94;;;19.09;80.50
11223;BME280;5668;52.012;8.724;2023-05-10T00:29:14;99294.28;;;19.10;80.39
11223;BME280;5668;52.012;8.724;2023-05-10T00:31:42;99285.78;;;19.08;79.97
11223;BME280;5668;52.012;8.724;2023-05-10T00:34:09;99291.03;;;19.08;80.05
11223;BME280;5668;52.012;8.724;2023-05-10T00:36:37;99285.13;;;19.06;80.20
11223;BME280;5668;52.012;8.724;2023-05-10T00:39:04;99280.69;;;19.06;80.13
11223;BME280;5668;52.012;8.724;2023-05-10T00:41:32;99281.88;;;19.04;80.05
11223;BME280;5668;52.012;8.724;2023-05-10T00:44:00;99281.03;;;19.03;79.99
11223;BME280;5668;52.012;8.724;2023-05-10T00:46:28;99274.13;;;19.02;79.79
11223;BME280;5668;52.012;8.724;2023-05-10T00:48:55;99281.03;;;19.03;79.85
11223;BME280;5668;52.012;8.724;2023-05-10T00:51:22;99276.78;;;19.02;79.84
11223;BME280;5668;52.012;8.724;2023-05-10T00:53:50;99277.00;;;19.01;79.80
11223;BME280;5668;52.012;8.724;2023-05-10T00:56:18;99272.72;;;19.00;79.91
11223;BME280;5668;52.012;8.724;2023-05-10T00:58:46;99272.72;;;19.00;80.02
11223;BME280;5668;52.012;8.724;2023-05-10T01:01:15;99275.53;;;18.98;80.08
11223;BME280;5668;52.012;8.724;2023-05-10T01:03:42;99276.53;;;18.97;80.00
11223;BME280;5668;52.012;8.724;2023-05-10T01:06:09;99270.25;;;18.98;80.89
11223;BME280;5668;52.012;8.724;2023-05-10T01:08:37;99279.34;;;18.95;81.09
11223;BME280;5668;52.012;8.724;2023-05-10T01:11:04;99267.19;;;18.94;80.99
11223;BME280;5668;52.012;8.724;2023-05-10T01:13:34;99271.84;;;18.92;81.23
11223;BME280;5668;52.012;8.724;2023-05-10T01:16:03;99266.38;;;18.94;82.10
11223;BME280;5668;52.012;8.724;2023-05-10T01:18:34;99272.84;;;18.91;82.43
11223;BME280;5668;52.012;8.724;2023-05-10T01:21:12;99265.13;;;18.90;82.74
11223;BME280;5668;52.012;8.724;2023-05-10T01:30:01;99271.06;;;18.77;84.52
11223;BME280;5668;52.012;8.724;2023-05-10T01:32:37;99269.41;;;18.76;85.56
11223;BME280;5668;52.012;8.724;2023-05-10T01:35:13;99265.34;;;18.74;85.79
11223;BME280;5668;52.012;8.724;2023-05-10T01:37:47;99262.09;;;18.72;86.08
11223;BME280;5668;52.012;8.724;2023-05-10T01:40:22;99256.38;;;18.68;86.72
11223;BME280;5668;52.012;8.724;2023-05-10T01:42:56;99257.53;;;18.66;86.56
11223;BME280;5668;52.012;8.724;2023-05-10T01:45:30;99257.53;;;18.66;85.81
11223;BME280;5668;52.012;8.724;2023-05-10T01:48:05;99260.81;;;18.68;84.89
11223;BME280;5668;52.012;8.724;2023-05-10T01:50:34;99260.81;;;18.68;84.56
11223;BME280;5668;52.012;8.724;2023-05-10T01:53:03;99261.63;;;18.68;84.27
11223;BME280;5668;52.012;8.724;2023-05-10T01:55:35;99260.00;;;18.67;84.15
11223;BME280;5668;52.012;8.724;2023-05-10T01:58:08;99260.00;;;18.67;84.07
11223;BME280;5668;52.012;8.724;2023-05-10T02:00:40;99261.00;;;18.66;84.07
11223;BME280;5668;52.012;8.724;2023-05-10T02:03:11;99258.34;;;18.66;84.18
11223;BME280;5668;52.012;8.724;2023-05-10T02:05:40;99258.19;;;18.68;84.24
11223;BME280;5668;52.012;8.724;2023-05-10T02:08:08;99258.53;;;18.65;83.74
11223;BME280;5668;52.012;8.724;2023-05-10T02:10:36;99256.72;;;18.65;83.69
11223;BME280;5668;52.012;8.724;2023-05-10T02:13:06;99263.63;;;18.66;84.37
11223;BME280;5668;52.012;8.724;2023-05-10T02:15:34;99271.91;;;18.63;84.34
11223;BME280;5668;52.012;8.724;2023-05-10T02:18:04;99278.91;;;18.56;85.00
11223;BME280;5668;52.012;8.724;2023-05-10T02:20:34;99281.53;;;18.56;85.29
11223;BME280;5668;52.012;8.724;2023-05-10T02:23:03;99283.31;;;18.55;85.17
11223;BME280;5668;52.012;8.724;2023-05-10T02:25:31;99286.13;;;18.54;85.45
11223;BME280;5668;52.012;8.724;2023-05-10T02:28:01;99291.75;;;18.51;87.34
11223;BME280;5668;52.012;8.724;2023-05-10T02:30:30;99277.06;;;18.42;88.14
11223;BME280;5668;52.012;8.724;2023-05-10T02:32:58;99285.41;;;18.31;89.22
11223;BME280;5668;52.012;8.724;2023-05-10T02:35:26;99279.59;;;18.21;89.30
11223;BME280;5668;52.012;8.724;2023-05-10T02:37:56;99287.56;;;18.12;88.80
11223;BME280;5668;52.012;8.724;2023-05-10T02:40:26;99276.63;;;18.09;89.53
11223;BME280;5668;52.012;8.724;2023-05-10T02:42:56;99285.16;;;18.11;89.31
11223;BME280;5668;52.012;8.724;2023-05-10T02:45:27;99281.50;;;18.12;88.84
11223;BME280;5668;52.012;8.724;2023-05-10T02:47:55;99288.59;;;18.11;88.26
11223;BME280;5668;52.012;8.724;2023-05-10T02:50:23;99287.78;;;18.11;88.06
11223;BME280;5668;52.012;8.724;2023-05-10T02:52:58;99287.56;;;18.12;87.62
11223;BME280;5668;52.012;8.724;2023-05-10T02:55:31;99289.59;;;18.10;87.28
11223;BME280;5668;52.012;8.724;2023-05-10T02:58:00;99285.97;;;18.11;87.41
11223;BME280;5668;52.012;8.724;2023-05-10T03:00:29;99283.13;;;18.13;86.95
11223;BME280;5668;52.012;8.724;2023-05-10T03:02:57;99283.97;;;18.13;86.56
11223;BME280;5668;52.012;8.724;2023-05-10T03:05:24;99291.22;;;18.11;86.80
11223;BME280;5668;52.012;8.724;2023-05-10T03:07:52;99288.78;;;18.10;86.65
11223;BME280;5668;52.012;8.724;2023-05-10T03:10:25;99290.41;;;18.11;86.70
11223;BME280;5668;52.012;8.724;2023-05-10T03:13:01;99285.50;;;18.08;86.35
11223;BME280;5668;52.012;8.724;2023-05-10T03:15:42;99282.13;;;17.99;86.93
11223;BME280;5668;52.012;8.724;2023-05-10T03:18:15;99289.75;;;17.94;88.10
11223;BME280;5668;52.012;8.724;2023-05-10T03:20:46;99284.50;;;17.94;87.82
11223;BME280;5668;52.012;8.724;2023-05-10T03:23:20;99286.94;;;17.96;87.34
11223;BME280;5668;52.012;8.724;2023-05-10T03:25:50;99285.31;;;17.95;87.85
11223;BME280;5668;52.012;8.724;2023-05-10T03:28:19;99292.72;;;17.91;87.40
11223;BME280;5668;52.012;8.724;2023-05-10T03:30:47;99285.66;;;17.92;87.48
11223;BME280;5668;52.012;8.724;2023-05-10T03:33:15;99287.47;;;17.91;87.56
11223;BME280;5668;52.012;8.724;2023-05-10T03:35:43;99296.34;;;17.90;87.31
11223;BME280;5668;52.012;8.724;2023-05-10T03:38:11;99293.53;;;17.92;87.72
11223;BME280;5668;52.012;8.724;2023-05-10T03:40:39;99296.19;;;17.92;87.67
11223;BME280;5668;52.012;8.724;2023-05-10T03:43:07;99299.78;;;17.91;87.43
11223;BME280;5668;52.012;8.724;2023-05-10T03:45:35;99297.38;;;17.89;88.00
11223;BME280;5668;52.012;8.724;2023-05-10T03:48:02;99296.34;;;17.90;88.25
11223;BME280;5668;52.012;8.724;2023-05-10T03:50:29;99298.16;;;17.90;88.23
11223;BME280;5668;52.012;8.724;2023-05-10T03:52:57;99295.34;;;17.91;87.89
11223;BME280;5668;52.012;8.724;2023-05-10T03:55:24;99298.97;;;17.90;88.16
11223;BME280;5668;52.012;8.724;2023-05-10T03:57:51;99293.94;;;17.89;87.55
11223;BME280;5668;52.012;8.724;2023-05-10T04:00:21;99294.09;;;17.87;87.49
11223;BME280;5668;52.012;8.724;2023-05-10T04:02:48;99295.44;;;17.83;87.56
11223;BME280;5668;52.012;8.724;2023-05-10T04:05:15;99299.25;;;17.81;88.49
11223;BME280;5668;52.012;8.724;2023-05-10T04:07:42;99300.41;;;17.78;88.95
11223;BME280;5668;52.012;8.724;2023-05-10T04:10:12;99307.03;;;17.74;89.70
11223;BME280;5668;52.012;8.724;2023-05-10T04:12:40;99305.75;;;17.70;89.92
11223;BME280;5668;52.012;8.724;2023-05-10T04:15:08;99302.47;;;17.68;90.36
11223;BME280;5668;52.012;8.724;2023-05-10T04:17:36;99307.09;;;17.66;90.78
11223;BME280;5668;52.012;8.724;2023-05-10T04:20:05;99307.94;;;17.66;90.88
11223;BME280;5668;52.012;8.724;2023-05-10T04:22:33;99312.38;;;17.66;91.08
11223;BME280;5668;52.012;8.724;2023-05-10T04:25:00;99310.91;;;17.63;91.16
11223;BME280;5668;52.012;8.724;2023-05-10T04:27:27;99319.09;;;17.60;91.12
11223;BME280;5668;52.012;8.724;2023-05-10T04:29:55;99316.84;;;17.57;91.57
11223;BME280;5668;52.012;8.724;2023-05-10T04:32:22;99315.69;;;17.52;91.92
11223;BME280;5668;52.012;8.724;2023-05-10T04:34:51;99316.06;;;17.49;92.44
11223;BME280;5668;52.012;8.724;2023-05-10T04:37:19;99328.09;;;17.43;92.34
11223;BME280;5668;52.012;8.724;2023-05-10T04:39:47;99321.44;;;17.32;92.87
11223;BME280;5668;52.012;8.724;2023-05-10T04:42:14;99327.72;;;17.23;93.80
11223;BME280;5668;52.012;8.724;2023-05-10T04:44:41;99330.41;;;17.15;94.03
11223;BME280;5668;52.012;8.724;2023-05-10T04:47:09;99335.19;;;17.12;94.05
11223;BME280;5668;52.012;8.724;2023-05-10T04:49:37;99338.69;;;17.04;94.36
11223;BME280;5668;52.012;8.724;2023-05-10T04:52:06;99346.91;;;17.01;93.95
11223;BME280;5668;52.012;8.724;2023-05-10T04:54:33;99349.56;;;16.93;94.87
11223;BME280;5668;52.012;8.724;2023-05-10T04:57:00;99354.19;;;16.91;94.84
11223;BME280;5668;52.012;8.724;2023-05-10T04:59:28;99355.03;;;16.83;95.37
11223;BME280;5668;52.012;8.724;2023-05-10T05:01:55;99350.28;;;16.79;96.02
11223;BME280;5668;52.012;8.724;2023-05-10T05:04:22;99353.06;;;16.77;95.86
11223;BME280;5668;52.012;8.724;2023-05-10T05:06:50;99363.09;;;16.74;96.35
11223;BME280;5668;52.012;8.724;2023-05-10T05:09:18;99370.16;;;16.73;96.23
11223;BME280;5668;52.012;8.724;2023-05-10T05:11:45;99366.06;;;16.71;96.63
11223;BME280;5668;52.012;8.724;2023-05-10T05:14:12;99369.84;;;16.68;96.88
11223;BME280;5668;52.012;8.724;2023-05-10T05:16:40;99376.25;;;16.66;96.68
11223;BME280;5668;52.012;8.724;2023-05-10T05:19:07;99379.84;;;16.64;96.32
11223;BME280;5668;52.012;8.724;2023-05-10T05:21:34;99385.25;;;16.63;96.51
11223;BME280;5668;52.012;8.724;2023-05-10T05:24:02;99391.50;;;16.62;96.48
11223;BME280;5668;52.012;8.724;2023-05-10T05:26:30;99394.31;;;16.60;96.91
11223;BME280;5668;52.012;8.724;2023-05-10T05:28:58;99392.31;;;16.62;97.00
11223;BME280;5668;52.012;8.724;2023-05-10T05:31:25;99390.84;;;16.68;96.59
11223;BME280;5668;52.012;8.724;2023-05-10T05:33:52;99397.53;;;16.71;96.39
11223;BME280;5668;52.012;8.724;2023-05-10T05:36:20;99399.69;;;16.75;96.20
11223;BME280;5668;52.012;8.724;2023-05-10T05:38:47;99406.22;;;16.79;95.84
11223;BME280;5668;52.012;8.724;2023-05-10T05:41:14;99402.44;;;16.82;95.67
11223;BME280;5668;52.012;8.724;2023-05-10T05:43:42;99412.78;;;16.83;95.48
11223;BME280;5668;52.012;8.724;2023-05-10T05:46:10;99414.22;;;16.86;95.36
11223;BME280;5668;52.012;8.724;2023-05-10T05:48:37;99421.09;;;16.87;95.01
11223;BME280;5668;52.012;8.724;2023-05-10T05:51:04;99424.09;;;16.84;95.06
11223;BME280;5668;52.012;8.724;2023-05-10T05:53:31;99427.69;;;16.83;95.24
11223;BME280;5668;52.012;8.724;2023-05-10T05:55:59;99421.78;;;16.81;95.32
11223;BME280;5668;52.012;8.724;2023-05-10T05:58:26;99435.25;;;16.78;95.22
11223;BME280;5668;52.012;8.724;2023-05-10T06:00:55;99436.06;;;16.70;95.68
11223;BME280;5668;52.012;8.724;2023-05-10T06:03:22;99436.59;;;16.66;96.03
11223;BME280;5668;52.012;8.724;2023-05-10T06:05:49;99445.28;;;16.66;96.37
11223;BME280;5668;52.012;8.724;2023-05-10T06:08:17;99441.19;;;16.63;96.21
11223;BME280;5668;52.012;8.724;2023-05-10T06:10:44;99442.16;;;16.62;96.47
11223;BME280;5668;52.012;8.724;2023-05-10T06:13:11;99454.28;;;16.63;96.23
11223;BME280;5668;52.012;8.724;2023-05-10T06:15:38;99454.78;;;16.67;96.71
11223;BME280;5668;52.012;8.724;2023-05-10T06:18:07;99452.34;;;16.66;96.44
11223;BME280;5668;52.012;8.724;2023-05-10T06:20:34;99462.81;;;16.66;96.75
11223;BME280;5668;52.012;8.724;2023-05-10T06:23:01;99462.00;;;16.65;96.21
11223;BME280;5668;52.012;8.724;2023-05-10T06:25:29;99468.41;;;16.62;95.97
11223;BME280;5668;52.012;8.724;2023-05-10T06:27:56;99476.59;;;16.59;96.62
11223;BME280;5668;52.012;8.724;2023-05-10T06:30:24;99472.00;;;16.53;96.99
11223;BME280;5668;52.012;8.724;2023-05-10T06:32:54;99477.25;;;16.53;96.91
11223;BME280;5668;52.012;8.724;2023-05-10T06:35:23;99481.69;;;16.53;97.22
11223;BME280;5668;52.012;8.724;2023-05-10T06:37:51;99478.03;;;16.54;96.99
11223;BME280;5668;52.012;8.724;2023-05-10T06:40:19;99478.88;;;16.54;96.46
11223;BME280;5668;52.012;8.724;2023-05-10T06:42:46;99487.09;;;16.51;96.73
11223;BME280;5668;52.012;8.724;2023-05-10T06:45:14;99489.72;;;16.51;96.36
11223;BME280;5668;52.012;8.724;2023-05-10T06:47:41;99487.25;;;16.50;96.35
11223;BME280;5668;52.012;8.724;2023-05-10T06:50:10;99500.50;;;16.48;96.00
11223;BME280;5668;52.012;8.724;2023-05-10T06:52:40;99496.59;;;16.44;96.45
11223;BME280;5668;52.012;8.724;2023-05-10T06:55:08;99503.81;;;16.42;96.47
11223;BME280;5668;52.012;8.724;2023-05-10T06:57:35;99509.22;;;16.41;96.24
11223;BME280;5668;52.012;8.724;2023-05-10T07:00:03;99510.03;;;16.41;96.28
11223;BME280;5668;52.012;8.724;2023-05-10T07:02:31;99504.13;;;16.39;96.62
11223;BME280;5668;52.012;8.724;2023-05-10T07:04:58;99509.38;;;16.39;96.58
11223;BME280;5668;52.012;8.724;2023-05-10T07:07:25;99509.38;;;16.39;96.46
11223;BME280;5668;52.012;8.724;2023-05-10T07:09:54;99518.88;;;16.40;96.55
11223;BME280;5668;52.012;8.724;2023-05-10T07:12:22;99514.97;;;16.44;96.86
11223;BME280;5668;52.012;8.724;2023-05-10T07:14:49;99514.97;;;16.44;96.42
11223;BME280;5668;52.012;8.724;2023-05-10T07:17:16;99525.28;;;16.46;96.23
11223;BME280;5668;52.012;8.724;2023-05-10T07:19:44;99521.50;;;16.48;96.71
11223;BME280;5668;52.012;8.724;2023-05-10T07:22:11;99528.38;;;16.49;96.71
11223;BME280;5668;52.012;8.724;2023-05-10T07:24:38;99519.69;;;16.49;96.64
11223;BME280;5668;52.012;8.724;2023-05-10T07:27:07;99521.34;;;16.50;96.68
11223;BME280;5668;52.012;8.724;2023-05-10T07:29:34;99523.16;;;16.49;96.32
11223;BME280;5668;52.012;8.724;2023-05-10T07:32:02;99527.72;;;16.47;96.99
11223;BME280;5668;52.012;8.724;2023-05-10T07:34:29;99532.97;;;16.47;96.54
11223;BME280;5668;52.012;8.724;2023-05-10T07:36:58;99532.81;;;16.49;97.03
11223;BME280;5668;52.012;8.724;2023-05-10T07:39:26;99528.06;;;16.52;96.96
11223;BME280;5668;52.012;8.724;2023-05-10T07:41:53;99530.03;;;16.50;96.47
11223;BME280;5668;52.012;8.724;2023-05-10T07:44:22;99526.28;;;16.53;96.92
11223;BME280;5668;52.012;8.724;2023-05-10T07:46:50;99538.88;;;16.57;97.07
11223;BME280;5668;52.012;8.724;2023-05-10T07:49:18;99539.22;;;16.62;97.24
11223;BME280;5668;52.012;8.724;2023-05-10T07:51:45;99540.56;;;16.67;97.02
11223;BME280;5668;52.012;8.724;2023-05-10T07:54:12;99549.56;;;16.72;97.02
11223;BME280;5668;52.012;8.724;2023-05-10T07:56:39;99544.81;;;16.76;96.08
11223;BME280;5668;52.012;8.724;2023-05-10T07:59:15;99546.44;;;16.77;96.00
11223;BME280;5668;52.012;8.724;2023-05-10T08:01:44;99544.31;;;16.80;95.55
11223;BME280;5668;52.012;8.724;2023-05-10T08:04:12;99546.13;;;16.80;95.76
11223;BME280;5668;52.012;8.724;2023-05-10T08:06:39;99544.97;;;16.82;95.68
11223;BME280;5668;52.012;8.724;2023-05-10T08:09:07;99550.06;;;16.84;95.45
11223;BME280;5668;52.012;8.724;2023-05-10T08:11:34;99551.88;;;16.83;95.86
11223;BME280;5668;52.012;8.724;2023-05-10T08:14:01;99550.38;;;16.89;96.00
11223;BME280;5668;52.012;8.724;2023-05-10T08:16:28;99556.09;;;16.92;95.62
11223;BME280;5668;52.012;8.724;2023-05-10T08:18:57;99556.59;;;16.96;95.24
11223;BME280;5668;52.012;8.724;2023-05-10T08:21:24;99557.25;;;16.98;95.11
11223;BME280;5668;52.012;8.724;2023-05-10T08:23:52;99559.88;;;16.98;94.83
11223;BME280;5668;52.012;8.724;2023-05-10T08:26:19;99557.75;;;16.93;95.15
11223;BME280;5668;52.012;8.724;2023-05-10T08:28:46;99560.88;;;16.97;95.69
11223;BME280;5668;52.012;8.724;2023-05-10T08:31:14;99559.38;;;16.94;95.31
11223;BME280;5668;52.012;8.724;2023-05-10T08:33:41;99563.50;;;16.97;95.97
11223;BME280;5668;52.012;8.724;2023-05-10T08:36:10;99556.44;;;16.97;96.01
11223;BME280;5668;52.012;8.724;2023-05-10T08:38:40;99572.00;;;16.99;96.24
11223;BME280;5668;52.012;8.724;2023-05-10T08:41:07;99569.88;;;17.02;96.13
11223;BME280;5668;52.012;8.724;2023-05-10T08:43:36;99572.81;;;17.08;95.96
11223;BME280;5668;52.012;8.724;2023-05-10T08:46:05;99573.63;;;17.08;95.66
11223;BME280;5668;52.012;8.724;2023-05-10T08:48:34;99569.88;;;17.11;96.22
11223;BME280;5668;52.012;8.724;2023-05-10T08:51:03;99574.78;;;17.14;96.42
11223;BME280;5668;52.012;8.724;2023-05-10T08:53:33;99571.66;;;17.18;96.33
11223;BME280;5668;52.012;8.724;2023-05-10T08:56:04;99569.34;;;17.23;96.24
11223;BME280;5668;52.012;8.724;2023-05-10T08:58:31;99582.97;;;17.27;96.48
11223;BME280;5668;52.012;8.724;2023-05-10T09:00:59;99578.00;;;17.32;96.53
11223;BME280;5668;52.012;8.724;2023-05-10T09:03:27;99583.09;;;17.33;96.78
11223;BME280;5668;52.012;8.724;2023-05-10T09:05:55;99587.38;;;17.34;96.90
11223;BME280;5668;52.012;8.724;2023-05-10T09:08:23;99591.94;;;17.40;96.33
11223;BME280;5668;52.012;8.724;2023-05-10T09:10:54;99585.56;;;17.43;96.57
11223;BME280;5668;52.012;8.724;2023-05-10T09:13:22;99575.34;;;17.48;96.18
11223;BME280;5668;52.012;8.724;2023-05-10T09:15:50;99586.66;;;17.57;96.34
11223;BME280;5668;52.012;8.724;2023-05-10T09:18:17;99581.56;;;17.63;96.40
11223;BME280;5668;52.012;8.724;2023-05-10T09:20:44;99589.75;;;17.68;96.03
11223;BME280;5668;52.012;8.724;2023-05-10T09:23:12;99590.06;;;17.73;95.17
11223;BME280;5668;52.012;8.724;2023-05-10T09:25:41;99589.25;;;17.73;94.30
11223;BME280;5668;52.012;8.724;2023-05-10T09:28:10;99596.50;;;17.63;92.86
11223;BME280;5668;52.012;8.724;2023-05-10T09:30:38;99596.50;;;17.63;93.12
11223;BME280;5668;52.012;8.724;2023-05-10T09:33:06;99607.84;;;17.63;92.88
11223;BME280;5668;52.012;8.724;2023-05-10T09:35:33;99611.28;;;17.64;93.35
11223;BME280;5668;52.012;8.724;2023-05-10T09:38:03;99612.28;;;17.63;93.54
11223;BME280;5668;52.012;8.724;2023-05-10T09:40:31;99614.38;;;17.59;94.25
11223;BME280;5668;52.012;8.724;2023-05-10T09:43:00;99617.06;;;17.51;94.99
11223;BME280;5668;52.012;8.724;2023-05-10T09:45:29;99615.91;;;17.46;95.38
11223;BME280;5668;52.012;8.724;2023-05-10T09:47:57;99627.75;;;17.41;96.12
11223;BME280;5668;52.012;8.724;2023-05-10T09:50:25;99624.81;;;17.36;97.48
11223;BME280;5668;52.012;8.724;2023-05-10T09:52:54;99626.41;;;17.37;97.42
11223;BME280;5668;52.012;8.724;2023-05-10T09:55:25;99627.25;;;17.38;97.51
11223;BME280;5668;52.012;8.724;2023-05-10T09:57:59;99623.34;;;17.34;96.94
11223;BME280;5668;52.012;8.724;2023-05-10T10:00:33;99624.97;;;17.35;97.19
11223;BME280;5668;52.012;8.724;2023-05-10T10:03:01;99625.94;;;17.42;97.13
11223;BME280;5668;52.012;8.724;2023-05-10T10:05:29;99619.50;;;17.45;97.27
11223;BME280;5668;52.012;8.724;2023-05-10T10:07:58;99627.72;;;17.50;97.51
11223;BME280;5668;52.012;8.724;2023-05-10T10:10:26;99622.63;;;17.56;98.06
11223;BME280;5668;52.012;8.724;2023-05-10T10:12:55;99615.19;;;17.68;98.54
11223;BME280;5668;52.012;8.724;2023-05-10T10:15:23;99617.19;;;17.74;98.39
11223;BME280;5668;52.012;8.724;2023-05-10T10:17:52;99614.69;;;17.81;98.58
11223;BME280;5668;52.012;8.724;2023-05-10T10:20:22;99620.06;;;17.87;98.20
11223;BME280;5668;52.012;8.724;2023-05-10T10:22:50;99623.00;;;17.92;96.76
11223;BME280;5668;52.012;8.724;2023-05-10T10:25:18;99617.09;;;17.90;95.63
11223;BME280;5668;52.012;8.724;2023-05-10T10:27:56;99621.03;;;17.94;95.39
11223;BME280;5668;52.012;8.724;2023-05-10T10:30:31;99619.69;;;17.98;95.85
11223;BME280;5668;52.012;8.724;2023-05-10T10:33:18;99610.16;;;17.97;94.54
11223;BME280;5668;52.012;8.724;2023-05-10T10:35:50;99615.72;;;18.02;94.64
11223;BME280;5668;52.012;8.724;2023-05-10T10:38:19;99610.31;;;18.04;93.94
11223;BME280;5668;52.012;8.724;2023-05-10T10:40:46;99612.06;;;18.11;93.50
11223;BME280;5668;52.012;8.724;2023-05-10T10:43:24;99599.56;;;18.13;93.05
11223;BME280;5668;52.012;8.724;2023-05-10T10:46:12;99609.56;;;18.18;92.45
11223;BME280;5668;52.012;8.724;2023-05-10T10:48:41;99606.69;;;18.28;92.35
11223;BME280;5668;52.012;8.724;2023-05-10T10:51:14;99606.84;;;18.34;92.18
11223;BME280;5668;52.012;8.724;2023-05-10T10:53:41;99609.28;;;18.36;91.31
11223;BME280;5668;52.012;8.724;2023-05-10T10:56:10;99606.38;;;18.31;89.41
11223;BME280;5668;52.012;8.724;2023-05-10T10:58:39;99612.56;;;18.38;89.84
11223;BME280;5668;52.012;8.724;2023-05-10T11:01:11;99616.66;;;18.40;89.57
11223;BME280;5668;52.012;8.724;2023-05-10T11:03:41;99611.81;;;18.52;89.43
11223;BME280;5668;52.012;8.724;2023-05-10T11:06:29;99609.53;;;18.49;87.44
11223;BME280;5668;52.012;8.724;2023-05-10T11:08:58;99618.22;;;18.49;85.66
11223;BME280;5668;52.012;8.724;2023-05-10T11:11:25;99612.13;;;18.57;85.76
11223;BME280;5668;52.012;8.724;2023-05-10T11:13:52;99608.00;;;18.63;85.24
11223;BME280;5668;52.012;8.724;2023-05-10T11:16:21;99606.19;;;18.63;83.68
11223;BME280;5668;52.012;8.724;2023-05-10T11:18:57;99606.63;;;18.67;83.51
11223;BME280;5668;52.012;8.724;2023-05-10T11:21:25;99609.09;;;18.68;84.12
11223;BME280;5668;52.012;8.724;2023-05-10T11:23:53;99612.72;;;18.67;83.41
11223;BME280;5668;52.012;8.724;2023-05-10T11:26:23;99612.88;;;18.66;83.88
11223;BME280;5668;52.012;8.724;2023-05-10T11:28:52;99613.19;;;18.71;83.56
11223;BME280;5668;52.012;8.724;2023-05-10T11:31:21;99614.47;;;18.75;83.76
11223;BME280;5668;52.012;8.724;2023-05-10T11:33:50;99611.31;;;18.79;85.66
11223;BME280;5668;52.012;8.724;2023-05-10T11:36:21;99612.59;;;18.83;87.59
11223;BME280;5668;52.012;8.724;2023-05-10T11:38:49;99608.72;;;18.94;88.37
11223;BME280;5668;52.012;8.724;2023-05-10T11:41:18;99608.94;;;19.07;88.09
11223;BME280;5668;52.012;8.724;2023-05-10T11:43:49;99610.28;;;19.18;87.66
11223;BME280;5668;52.012;8.724;2023-05-10T11:46:19;99615.47;;;19.26;85.21
11223;BME280;5668;52.012;8.724;2023-05-10T11:48:48;99616.06;;;19.36;84.06
11223;BME280;5668;52.012;8.724;2023-05-10T11:51:22;99612.34;;;19.45;82.71
11223;BME280;5668;52.012;8.724;2023-05-10T11:53:50;99619.41;;;19.30;81.03
11223;BME280;5668;52.012;8.724;2023-05-10T11:56:19;99625.19;;;19.25;81.28
11223;BME280;5668;52.012;8.724;2023-05-10T11:58:53;99621.94;;;19.23;81.67
11223;BME280;5668;52.012;8.724;2023-05-10T12:01:21;99621.06;;;19.31;81.39
11223;BME280;5668;52.012;8.724;2023-05-10T12:03:49;99627.50;;;19.28;81.51
11223;BME280;5668;52.012;8.724;2023-05-10T12:06:17;99622.31;;;19.35;80.23
11223;BME280;5668;52.012;8.724;2023-05-10T12:08:47;99624.84;;;19.28;79.40
11223;BME280;5668;52.012;8.724;2023-05-10T12:11:18;99629.22;;;19.36;79.58
11223;BME280;5668;52.012;8.724;2023-05-10T12:13:47;99629.50;;;19.41;79.51
11223;BME280;5668;52.012;8.724;2023-05-10T12:16:16;99624.16;;;19.49;80.52
11223;BME280;5668;52.012;8.724;2023-05-10T12:18:44;99635.28;;;19.59;80.53
11223;BME280;5668;52.012;8.724;2023-05-10T12:21:11;99632.53;;;19.67;80.25
11223;BME280;5668;52.012;8.724;2023-05-10T12:23:39;99636.00;;;19.83;80.03
11223;BME280;5668;52.012;8.724;2023-05-10T12:26:09;99638.72;;;19.89;78.45
11223;BME280;5668;52.012;8.724;2023-05-10T12:28:37;99642.16;;;19.90;77.06
11223;BME280;5668;52.012;8.724;2023-05-10T12:31:06;99647.44;;;19.90;77.89
11223;BME280;5668;52.012;8.724;2023-05-10T12:33:36;99660.56;;;19.83;78.03
11223;BME280;5668;52.012;8.724;2023-05-10T12:36:06;99662.63;;;19.73;77.38
11223;BME280;5668;52.012;8.724;2023-05-10T12:38:34;99668.72;;;19.59;79.33
11223;BME280;5668;52.012;8.724;2023-05-10T12:41:04;99676.25;;;19.47;80.84
11223;BME280;5668;52.012;8.724;2023-05-10T12:43:34;99689.09;;;19.27;80.57
11223;BME280;5668;52.012;8.724;2023-05-10T12:46:06;99692.59;;;19.20;82.57
11223;BME280;5668;52.012;8.724;2023-05-10T12:48:34;99684.06;;;19.18;84.08
11223;BME280;5668;52.012;8.724;2023-05-10T12:51:01;99683.72;;;19.21;84.22
11223;BME280;5668;52.012;8.724;2023-05-10T12:53:29;99687.34;;;19.20;83.35
11223;BME280;5668;52.012;8.724;2023-05-10T12:55:56;99696.63;;;19.16;83.30
11223;BME280;5668;52.012;8.724;2023-05-10T12:58:23;99694.59;;;19.18;84.00
11223;BME280;5668;52.012;8.724;2023-05-10T13:00:52;99689.31;;;19.18;84.43
11223;BME280;5668;52.012;8.724;2023-05-10T13:03:20;99682.06;;;19.20;85.34
11223;BME280;5668;52.012;8.724;2023-05-10T13:05:47;99678.91;;;19.24;86.05
11223;BME280;5668;52.012;8.724;2023-05-10T13:08:14;99679.03;;;19.31;85.92
11223;BME280;5668;52.012;8.724;2023-05-10T13:10:41;99678.66;;;19.34;85.80
11223;BME280;5668;52.012;8.724;2023-05-10T13:13:09;99676.66;;;19.36;85.69
11223;BME280;5668;52.012;8.724;2023-05-10T13:15:36;99678.56;;;19.42;85.95
11223;BME280;5668;52.012;8.724;2023-05-10T13:18:05;99687.78;;;19.46;86.55
11223;BME280;5668;52.012;8.724;2023-05-10T13:20:32;99681.81;;;19.52;87.48
11223;BME280;5668;52.012;8.724;2023-05-10T13:22:59;99675.47;;;19.61;88.77
11223;BME280;5668;52.012;8.724;2023-05-10T13:25:27;99673.25;;;19.65;88.78